Custer, Michigan
Current Conditions -  °F | °C
As of 9:55 PM on Sunday 21 Dec 2014 (Local Time) from KLDM Reporting Station
Overcast Overcast  
Wind Chill: -2°   Ceiling: 4000
Heat Index:   Visibility: 7mi
Dew Point: -2°   Wind: 12mph
Humidity: 77%   Direction: 150°SSE
Pressure: 30.09"   Gusts: 17mph
Location:  43.95°N, 86.22°W
Report Text: KLDM 220255Z AUTO 15010G15KT 7SM OVC040 02/M02 A3009 RMK AO2 T00201017
Loading
Personal Weather Stations






























Interactive Weather Map New forecast layout! Learn more

10-Day Weather Forecast

Advertisements
Track Severe Weather on mobile